Time;durP1;ratioP1;P1;durP2;ratioP2;P2;SDS_P1;SDS_P2;PMS_P1;PMS_P2;Temp;Humidity;BMP_temperature;BMP_pressure;BME280_temperature;BME280_humidity;BME280_pressure;Samples;Min_cycle;Max_cycle;Signal;HPM_P1;HPM_P2
2021/01/07 00:02:22;;;;;;;21.70;10.47;;;;;;;8.25;73.94;94270.38;5071102;28;20266;-74
2021/01/07 00:04:48;;;;;;;19.53;9.43;;;;;;;8.18;73.85;94263.78;5071178;28;20220;-73
2021/01/07 00:07:13;;;;;;;14.97;8.47;;;;;;;8.09;74.37;94268.50;5071072;28;20171;-73
2021/01/07 00:09:39;;;;;;;15.87;8.83;;;;;;;8.26;72.83;94248.00;5071060;28;20210;-73
2021/01/07 00:12:05;;;;;;;18.83;8.13;;;;;;;8.25;72.89;94257.88;5071259;28;20179;-73
2021/01/07 00:14:30;;;;;;;18.47;8.97;;;;;;;7.75;74.90;94250.59;5071097;28;20250;-73
2021/01/07 00:16:55;;;;;;;19.43;9.57;;;;;;;7.94;75.28;94261.31;5071072;28;20199;-74
2021/01/07 00:19:21;;;;;;;21.43;10.67;;;;;;;8.02;75.19;94268.31;5071018;28;20600;-74
2021/01/07 00:21:46;;;;;;;19.20;9.80;;;;;;;8.05;74.35;94272.97;5071270;28;20258;-73
2021/01/07 00:24:12;;;;;;;16.33;8.90;;;;;;;8.25;72.98;94254.41;5070716;28;20177;-74
2021/01/07 00:26:37;;;;;;;21.13;8.50;;;;;;;8.21;73.19;94260.44;5070980;28;20201;-75
2021/01/07 00:29:03;;;;;;;14.40;8.70;;;;;;;8.11;74.58;94258.28;5070741;28;20214;-74
2021/01/07 00:31:29;;;;;;;19.90;9.17;;;;;;;7.85;74.80;94250.81;5071091;28;20181;-73
2021/01/07 00:33:55;;;;;;;15.07;8.07;;;;;;;8.13;74.71;94258.72;5086134;28;20167;-72
2021/01/07 00:36:20;;;;;;;19.20;8.53;;;;;;;8.22;75.01;94264.63;5070705;28;20199;-73
2021/01/07 00:38:46;;;;;;;17.00;9.67;;;;;;;7.85;76.02;94258.78;5070862;28;20425;-73
2021/01/07 00:41:16;;;;;;;21.30;9.70;;;;;;;8.08;76.36;94255.53;5070568;28;20938;-73
2021/01/07 00:43:41;;;;;;;17.33;8.83;;;;;;;8.17;76.08;94256.91;5086455;28;20187;-71
2021/01/07 00:46:08;;;;;;;17.67;9.67;;;;;;;8.04;75.25;94244.06;5074198;28;20800;-72
2021/01/07 00:48:34;;;;;;;17.90;9.47;;;;;;;8.16;73.94;94242.09;5074416;28;20198;-70
2021/01/07 00:51:00;;;;;;;17.23;9.30;;;;;;;8.08;75.48;94256.34;5072411;28;20417;-72
2021/01/07 00:53:25;;;;;;;17.30;8.53;;;;;;;7.82;75.39;94253.41;5073861;28;21607;-72
2021/01/07 00:55:51;;;;;;;16.97;9.23;;;;;;;7.92;73.10;94251.03;5073366;28;20186;-73
2021/01/07 00:58:16;;;;;;;23.07;10.67;;;;;;;8.06;74.63;94253.22;5073790;28;20178;-71
2021/01/07 01:00:42;;;;;;;15.87;9.07;;;;;;;7.60;75.63;94210.34;5073844;28;20664;-72
2021/01/07 01:03:07;;;;;;;19.13;9.47;;;;;;;7.63;77.08;94241.56;5074207;28;20179;-72
2021/01/07 01:05:33;;;;;;;14.60;8.57;;;;;;;7.96;75.65;94243.88;5074035;28;20664;-72
2021/01/07 01:07:58;;;;;;;15.83;8.73;;;;;;;8.04;73.78;94241.41;5074281;28;20182;-74
2021/01/07 01:10:24;;;;;;;15.00;8.77;;;;;;;7.91;75.60;94244.16;5073880;28;20721;-73
2021/01/07 01:12:49;;;;;;;12.50;8.37;;;;;;;8.17;73.65;94253.50;5073745;28;20175;-73
2021/01/07 01:15:15;;;;;;;17.77;9.37;;;;;;;7.74;74.85;94243.72;5073660;28;20203;-72
2021/01/07 01:17:41;;;;;;;15.27;8.70;;;;;;;7.74;74.91;94243.72;5072292;28;20187;-73
2021/01/07 01:20:08;;;;;;;13.23;9.13;;;;;;;8.01;73.34;94215.50;5089582;28;20167;-73
2021/01/07 01:22:34;;;;;;;19.67;9.10;;;;;;;7.79;74.67;94236.25;5073498;28;20167;-71
2021/01/07 01:25:00;;;;;;;17.30;8.53;;;;;;;7.67;74.30;94231.03;5073681;28;20421;-72
2021/01/07 01:27:29;;;;;;;15.77;8.20;;;;;;;7.71;73.64;94223.16;5073389;28;20168;-71
2021/01/07 01:29:54;;;;;;;16.07;9.00;;;;;;;7.99;74.11;94221.16;5073541;28;21008;-73
2021/01/07 01:32:20;;;;;;;16.57;9.00;;;;;;;7.57;75.23;94224.31;5073641;28;20421;-72
2021/01/07 01:34:45;;;;;;;14.93;7.83;;;;;;;7.57;76.01;94221.66;5073328;28;20182;-72
2021/01/07 01:37:11;;;;;;;16.07;9.47;;;;;;;7.76;74.94;94215.69;5073340;28;20226;-71
2021/01/07 01:39:36;;;;;;;14.77;8.40;;;;;;;7.59;75.86;94200.09;5073216;28;20166;-72
2021/01/07 01:42:02;;;;;;;15.90;9.50;;;;;;;7.66;74.20;94197.59;5073354;28;20225;-73
2021/01/07 01:44:27;;;;;;;15.67;8.87;;;;;;;7.65;75.67;94196.81;5073240;28;20654;-73
2021/01/07 01:46:53;;;;;;;14.10;8.13;;;;;;;7.77;75.04;94187.22;5073557;28;20665;-75
2021/01/07 01:49:19;;;;;;;15.37;8.33;;;;;;;7.49;76.25;94188.06;5073098;28;20237;-74
2021/01/07 01:51:44;;;;;;;13.73;8.97;;;;;;;7.61;76.24;94185.31;5055439;28;20202;-72
2021/01/07 01:54:10;;;;;;;14.17;8.23;;;;;;;7.54;76.26;94157.81;5072759;28;20969;-72
2021/01/07 01:56:35;;;;;;;19.17;8.70;;;;;;;7.64;75.18;94176.69;5021914;28;20202;-73
2021/01/07 01:59:01;;;;;;;14.07;7.73;;;;;;;7.62;75.68;94159.53;5055359;28;20545;-72
2021/01/07 02:01:27;;;;;;;12.07;8.37;;;;;;;7.81;75.09;94140.25;5038360;28;20171;-71
2021/01/07 02:03:53;;;;;;;13.30;7.50;;;;;;;7.81;74.68;94154.31;5072818;28;20460;-72
2021/01/07 02:06:20;;;;;;;13.87;8.07;;;;;;;7.53;76.10;94141.13;5072681;28;20181;-72
2021/01/07 02:08:46;;;;;;;12.90;7.93;;;;;;;7.77;75.13;94142.03;5072835;28;20563;-72
2021/01/07 02:11:12;;;;;;;13.33;7.83;;;;;;;7.81;75.66;94141.00;5054398;28;20421;-72
2021/01/07 02:13:38;;;;;;;12.30;8.00;;;;;;;7.80;76.06;94128.84;5072701;28;20159;-72
2021/01/07 02:16:04;;;;;;;15.03;8.23;;;;;;;7.85;75.69;94114.50;5072347;28;20468;-73
2021/01/07 02:18:30;;;;;;;12.37;7.70;;;;;;;7.67;75.15;94124.72;5072721;28;20164;-72
2021/01/07 02:20:59;;;;;;;12.73;7.63;;;;;;;7.73;75.29;94115.38;5072572;28;20551;-72
2021/01/07 02:23:25;;;;;;;12.33;7.27;;;;;;;7.68;74.12;94089.06;5055298;28;20175;-71
2021/01/07 02:25:51;;;;;;;15.67;7.93;;;;;;;7.56;75.32;94092.59;5072505;28;21037;-72
2021/01/07 02:28:17;;;;;;;13.03;7.90;;;;;;;7.56;75.39;94087.28;5054160;28;20645;-72
2021/01/07 02:30:42;;;;;;;13.27;6.93;;;;;;;7.61;75.20;94089.69;5072407;28;20492;-72
2021/01/07 02:33:07;;;;;;;12.47;7.10;;;;;;;7.69;73.69;94095.94;5072316;28;20572;-72
2021/01/07 02:35:33;;;;;;;11.70;6.70;;;;;;;7.71;73.28;94092.94;5072424;28;20578;-73
2021/01/07 02:37:58;;;;;;;11.47;6.70;;;;;;;7.50;74.90;94090.56;5072173;28;20233;-74
2021/01/07 02:40:24;;;;;;;12.73;6.70;;;;;;;7.62;74.12;94093.09;5072391;28;20645;-73
2021/01/07 02:42:49;;;;;;;12.67;6.60;;;;;;;7.78;73.76;94087.78;5071922;28;20182;-72
2021/01/07 02:45:15;;;;;;;10.53;6.77;;;;;;;7.71;74.79;94093.69;5054576;28;20572;-72
2021/01/07 02:47:40;;;;;;;14.23;7.43;;;;;;;7.61;74.47;94095.00;5072263;28;20177;-72
2021/01/07 02:50:06;;;;;;;11.67;6.77;;;;;;;7.61;74.29;94094.22;5072046;28;20175;-73
2021/01/07 02:52:32;;;;;;;10.63;6.27;;;;;;;7.80;72.82;94090.84;5072110;28;20681;-73
2021/01/07 02:54:58;;;;;;;10.77;5.93;;;;;;;7.67;74.42;94103.47;5054285;28;20432;-72
2021/01/07 02:57:23;;;;;;;12.57;6.13;;;;;;;7.79;73.06;94089.31;5072030;28;20179;-72
2021/01/07 02:59:49;;;;;;;6.47;3.47;;;;;;;7.82;72.57;94072.69;5071642;28;20553;-74
2021/01/07 03:02:14;;;;;;;3.33;2.43;;;;;;;8.18;70.33;94074.97;5071934;28;20174;-72
2021/01/07 03:04:40;;;;;;;3.93;2.27;;;;;;;8.51;68.96;94068.41;5071698;28;20262;-72
2021/01/07 03:07:05;;;;;;;1.37;1.27;;;;;;;8.64;66.25;94080.47;5071303;28;20175;-73
2021/01/07 03:09:31;;;;;;;1.10;1.00;;;;;;;8.83;65.16;94086.88;5071662;28;20197;-73
2021/01/07 03:11:56;;;;;;;2.10;1.60;;;;;;;9.09;66.25;94110.97;5071716;28;20171;-77
2021/01/07 03:14:22;;;;;;;5.60;3.57;;;;;;;8.94;67.51;94111.81;5071724;28;20167;-73
2021/01/07 03:16:47;;;;;;;10.33;6.63;;;;;;;8.60;68.56;94098.25;5071297;28;20198;-72
2021/01/07 03:19:13;;;;;;;11.77;7.20;;;;;;;8.54;68.93;94112.97;5053342;28;20210;-72
2021/01/07 03:21:41;;;;;;;6.87;4.47;;;;;;;8.34;68.37;94108.72;5071438;28;20195;-72
2021/01/07 03:24:08;;;;;;;5.27;3.13;;;;;;;8.69;66.66;94108.66;5071454;28;20170;-72
2021/01/07 03:26:34;;;;;;;10.57;4.60;;;;;;;8.71;66.82;94085.16;5071243;28;20425;-72
2021/01/07 03:28:59;;;;;;;6.17;3.77;;;;;;;8.81;67.76;94100.56;5071259;28;20468;-72
2021/01/07 03:31:25;;;;;;;7.50;4.73;;;;;;;8.65;68.17;94105.97;5071266;28;20175;-72
2021/01/07 03:33:50;;;;;;;3.43;2.80;;;;;;;8.89;66.25;94093.47;5071534;28;20167;-72
2021/01/07 03:36:16;;;;;;;3.50;2.77;;;;;;;9.07;64.75;94096.44;5071031;28;20294;-74
2021/01/07 03:38:41;;;;;;;3.03;2.53;;;;;;;9.00;66.27;94086.44;5071485;28;20182;-73
2021/01/07 03:41:07;;;;;;;1.80;1.40;;;;;;;9.11;62.67;94075.97;5071461;28;20163;-74
2021/01/07 03:43:32;;;;;;;2.33;1.13;;;;;;;9.35;62.33;94080.94;5071230;28;20178;-72
2021/01/07 03:45:58;;;;;;;2.63;1.20;;;;;;;9.50;61.61;94077.38;5071274;28;20642;-72
2021/01/07 03:48:23;;;;;;;1.20;1.10;;;;;;;9.58;60.93;94070.25;5071118;28;20176;-73
2021/01/07 03:50:49;;;;;;;1.27;1.17;;;;;;;9.62;60.96;94071.06;5071338;28;20179;-72
2021/01/07 03:53:14;;;;;;;1.30;1.20;;;;;;;9.81;60.33;94075.53;5071052;28;20171;-72
2021/01/07 03:55:40;;;;;;;2.50;1.20;;;;;;;9.72;59.31;94065.16;5071205;28;20233;-72
2021/01/07 03:58:05;;;;;;;6.53;1.30;;;;;;;9.76;58.53;94049.97;5071088;28;20215;-72
2021/01/07 04:00:31;;;;;;;1.03;0.80;;;;;;;9.80;58.33;94053.44;5071098;28;20657;-72
2021/01/07 04:02:56;;;;;;;0.80;0.80;;;;;;;9.86;58.24;94034.47;5071125;28;20232;-73
2021/01/07 04:05:22;;;;;;;2.33;1.00;;;;;;;9.86;57.35;94029.13;5071426;28;20171;-72
2021/01/07 04:07:47;;;;;;;4.00;0.90;;;;;;;9.93;57.05;94040.69;5071544;28;20183;-72
2021/01/07 04:10:13;;;;;;;1.03;0.90;;;;;;;9.94;57.28;94034.22;5071063;28;20244;-72
2021/01/07 04:12:38;;;;;;;1.00;0.90;;;;;;;10.11;56.11;94018.81;5071180;28;20171;-72
2021/01/07 04:15:07;;;;;;;1.10;1.00;;;;;;;10.12;55.52;94034.44;5070819;28;20669;-72
2021/01/07 04:17:32;;;;;;;0.90;0.90;;;;;;;10.12;54.49;94055.78;5071040;28;20237;-72
2021/01/07 04:19:58;;;;;;;1.23;1.00;;;;;;;10.25;54.63;94043.00;5073687;28;20957;-74
2021/01/07 04:22:24;;;;;;;3.13;1.00;;;;;;;10.09;55.36;94048.50;5074820;28;20182;-72
2021/01/07 04:24:49;;;;;;;1.30;1.20;;;;;;;10.32;55.56;94061.75;5050141;28;20231;-73
2021/01/07 04:27:15;;;;;;;0.93;0.93;;;;;;;10.22;55.21;94087.16;5074657;28;20962;-72
2021/01/07 04:29:42;;;;;;;0.93;0.93;;;;;;;10.38;54.82;94094.22;5074666;28;20352;-72
2021/01/07 04:32:08;;;;;;;2.13;0.90;;;;;;;10.30;54.04;94077.38;5073182;28;20271;-73
2021/01/07 04:34:33;;;;;;;3.83;1.00;;;;;;;10.35;53.67;94087.72;5074783;28;20500;-72
2021/01/07 04:36:59;;;;;;;0.90;0.90;;;;;;;10.37;53.10;94098.81;5074462;28;20677;-72
2021/01/07 04:39:24;;;;;;;2.00;1.00;;;;;;;10.48;53.25;94096.28;5074544;28;20164;-72
2021/01/07 04:41:50;;;;;;;1.10;1.00;;;;;;;10.44;53.68;94079.47;5074390;28;20653;-71
2021/01/07 04:44:15;;;;;;;0.97;0.93;;;;;;;10.54;52.76;94076.91;5056628;28;20175;-72
2021/01/07 04:46:41;;;;;;;1.27;1.17;;;;;;;10.36;52.96;94085.84;5056018;28;20720;-73
2021/01/07 04:49:06;;;;;;;0.80;0.80;;;;;;;10.52;53.51;94076.50;5074513;28;20711;-73
2021/01/07 04:51:33;;;;;;;0.90;0.90;;;;;;;10.42;52.33;94089.72;5074528;28;20174;-72
2021/01/07 04:53:59;;;;;;;0.70;0.70;;;;;;;10.45;53.04;94083.66;5074560;28;20548;-73
2021/01/07 04:56:24;;;;;;;0.73;0.73;;;;;;;10.36;53.57;94077.81;5056320;28;20460;-72
2021/01/07 04:58:50;;;;;;;2.67;1.30;;;;;;;10.37;53.48;94074.78;5074204;28;20171;-76
2021/01/07 05:01:15;;;;;;;3.90;1.20;;;;;;;10.42;53.11;94074.47;5074437;28;20194;-73
2021/01/07 05:03:44;;;;;;;1.00;1.00;;;;;;;10.45;52.95;94095.09;5073838;28;20283;-72
2021/01/07 05:06:09;;;;;;;1.33;0.97;;;;;;;10.55;52.65;94086.47;5074194;28;20179;-73
2021/01/07 05:08:35;;;;;;;1.27;0.90;;;;;;;10.53;52.65;94098.63;5073870;28;20509;-74
2021/01/07 05:11:00;;;;;;;1.00;1.00;;;;;;;10.51;53.32;94095.56;5074120;28;20178;-73
2021/01/07 05:13:26;;;;;;;1.70;1.00;;;;;;;10.66;52.32;94091.13;5073781;28;20548;-73
2021/01/07 05:15:51;;;;;;;1.00;1.00;;;;;;;10.64;52.84;94088.84;5074024;28;20203;-73
2021/01/07 05:18:17;;;;;;;2.67;1.70;;;;;;;10.54;53.49;94089.47;5073886;28;20224;-73
2021/01/07 05:20:42;;;;;;;1.47;1.00;;;;;;;10.45;53.01;94100.44;5055719;28;20178;-72
2021/01/07 05:23:08;;;;;;;1.30;1.20;;;;;;;10.57;53.06;94099.44;5073834;28;20171;-72
2021/01/07 05:25:34;;;;;;;1.27;1.00;;;;;;;10.64;52.78;94106.75;5073689;28;20344;-73
2021/01/07 05:28:00;;;;;;;1.97;1.20;;;;;;;10.62;53.29;94107.13;5055826;28;20230;-74
2021/01/07 05:30:27;;;;;;;1.20;1.10;;;;;;;10.55;53.49;94115.03;5072981;28;20210;-74
2021/01/07 05:32:58;;;;;;;1.40;1.10;;;;;;;10.61;53.50;94116.28;5073765;28;20425;-75
2021/01/07 05:35:23;;;;;;;1.37;1.27;;;;;;;10.55;53.97;94113.16;5055678;28;20595;-74
2021/01/07 05:37:48;;;;;;;4.33;1.20;;;;;;;10.56;53.96;94113.94;5073565;28;20413;-74
2021/01/07 05:40:14;;;;;;;1.20;1.10;;;;;;;10.50;54.34;94113.47;5073251;28;20186;-74
2021/01/07 05:42:42;;;;;;;0.80;0.80;;;;;;;10.44;53.88;94114.94;5073700;28;20179;-73
2021/01/07 05:45:08;;;;;;;1.10;1.10;;;;;;;10.48;54.08;94117.63;5073266;28;20583;-74
2021/01/07 05:47:48;;;;;;;1.17;1.13;;;;;;;10.56;53.68;94120.03;5073239;28;20413;-73
2021/01/07 05:50:14;;;;;;;1.20;1.10;;;;;;;10.67;52.96;94112.16;5073059;28;20578;-75
2021/01/07 05:52:43;;;;;;;1.17;1.07;;;;;;;10.58;53.17;94123.09;5073318;28;20508;-74
2021/01/07 05:55:13;;;;;;;1.30;1.20;;;;;;;10.48;53.95;94102.38;5073078;28;20259;-74
2021/01/07 05:57:39;;;;;;;0.80;0.80;;;;;;;10.59;53.29;94107.84;5073081;28;20414;-74
2021/01/07 06:00:10;;;;;;;2.47;1.17;;;;;;;10.51;53.74;94111.56;5073175;28;20425;-71
2021/01/07 06:02:36;;;;;;;1.63;1.10;;;;;;;10.48;53.22;94110.38;5073030;28;20813;-72
2021/01/07 06:05:03;;;;;;;4.47;1.30;;;;;;;10.62;54.20;94115.13;5073263;28;20422;-75
2021/01/07 06:07:29;;;;;;;2.83;1.40;;;;;;;10.66;53.12;94123.94;5072826;28;20487;-71
2021/01/07 06:09:54;;;;;;;1.30;1.20;;;;;;;10.53;52.76;94114.63;5055239;28;20448;-72
2021/01/07 06:12:20;;;;;;;1.13;1.03;;;;;;;10.52;53.34;94121.13;5064672;28;20171;-71
2021/01/07 06:14:45;;;;;;;1.33;1.23;;;;;;;10.53;53.09;94111.97;5047926;28;20189;-73
2021/01/07 06:17:14;;;;;;;2.10;1.00;;;;;;;10.50;53.34;94128.72;5034724;28;20213;-72
2021/01/07 06:19:40;;;;;;;2.30;1.20;;;;;;;10.59;53.50;94121.19;5052556;28;20175;-74
2021/01/07 06:22:14;;;;;;;2.03;1.10;;;;;;;10.73;53.13;94112.59;5048829;28;20526;-75
2021/01/07 06:24:40;;;;;;;2.63;1.20;;;;;;;10.56;52.96;94116.59;5041384;28;20935;-74
2021/01/07 06:27:25;;;;;;;2.60;1.20;;;;;;;10.65;53.41;94117.06;5052213;28;20403;-75
2021/01/07 06:29:57;;;;;;;1.87;1.20;;;;;;;10.58;53.44;94128.44;5052306;28;20434;-73
2021/01/07 06:32:22;;;;;;;2.47;1.50;;;;;;;10.58;53.51;94127.66;5052341;28;20990;-73
2021/01/07 06:34:49;;;;;;;1.30;1.20;;;;;;;10.78;53.21;94129.06;5034033;28;20426;-74
2021/01/07 06:37:33;;;;;;;1.67;1.20;;;;;;;10.64;53.32;94131.56;5050928;28;20279;-74
2021/01/07 06:40:01;;;;;;;3.20;1.33;;;;;;;10.71;53.09;94136.19;5052216;28;20994;-75
2021/01/07 06:42:27;;;;;;;0.97;0.97;;;;;;;10.68;52.80;94128.94;5050164;28;20466;-76
2021/01/07 06:44:53;;;;;;;1.40;1.03;;;;;;;10.78;53.08;94120.28;5050421;28;20469;-74
2021/01/07 06:47:19;;;;;;;1.40;1.10;;;;;;;10.66;53.30;94131.19;5017719;28;20430;-75
2021/01/07 06:49:45;;;;;;;1.83;1.40;;;;;;;10.68;53.38;94143.06;5052048;28;20561;-72
2021/01/07 06:52:10;;;;;;;4.33;1.57;;;;;;;10.71;53.12;94144.97;5050477;28;20429;-75
2021/01/07 06:54:37;;;;;;;2.43;1.50;;;;;;;10.58;54.12;94135.69;5049463;28;20200;-72
2021/01/07 06:57:03;;;;;;;1.73;1.50;;;;;;;10.54;53.74;94154.31;5051336;28;20662;-73
2021/01/07 06:59:29;;;;;;;1.50;1.13;;;;;;;10.48;53.68;94137.06;5052017;28;20486;-78
2021/01/07 07:01:58;;;;;;;1.30;1.20;;;;;;;10.61;53.38;94126.97;5052173;28;20907;-77
2021/01/07 07:04:30;;;;;;;4.47;1.40;;;;;;;10.86;52.99;94144.03;5033727;28;20191;-77
2021/01/07 07:07:03;;;;;;;1.40;1.30;;;;;;;10.72;52.85;94157.22;5051951;28;20426;-76
2021/01/07 07:09:37;;;;;;;7.37;1.73;;;;;;;10.69;53.39;94162.50;5051620;28;20994;-77
2021/01/07 07:12:03;;;;;;;1.60;1.50;;;;;;;10.64;52.88;94166.25;5034610;28;20417;-73
2021/01/07 07:14:30;;;;;;;2.37;1.30;;;;;;;10.94;52.17;94184.16;5048404;28;20508;-75
2021/01/07 07:16:56;;;;;;;2.17;1.43;;;;;;;10.89;52.46;94173.81;5049657;28;20222;-77
2021/01/07 07:19:23;;;;;;;3.87;1.50;;;;;;;10.96;53.42;94173.91;5051472;28;20796;-75
2021/01/07 07:22:02;;;;;;;2.77;1.27;;;;;;;10.83;52.75;94187.50;5051771;28;20608;-78
2021/01/07 07:24:32;;;;;;;2.53;1.40;;;;;;;10.66;52.91;94172.00;5051439;28;20437;-77
2021/01/07 07:27:01;;;;;;;1.60;1.33;;;;;;;10.66;54.07;94180.00;5051240;28;20921;-76
2021/01/07 07:29:27;;;;;;;3.27;1.30;;;;;;;10.78;52.96;94179.81;5050735;28;20470;-75
2021/01/07 07:31:52;;;;;;;3.30;2.10;;;;;;;10.89;52.88;94187.16;5051442;28;20456;-77
2021/01/07 07:34:27;;;;;;;1.67;1.20;;;;;;;10.89;52.21;94201.31;5051034;28;20211;-74
2021/01/07 07:36:53;;;;;;;1.93;1.80;;;;;;;10.81;53.22;94181.72;5070956;28;20187;-72
2021/01/07 07:39:18;;;;;;;1.37;1.13;;;;;;;10.92;51.94;94194.44;5051386;28;20484;-76
2021/01/07 07:41:44;;;;;;;1.00;1.00;;;;;;;11.14;52.44;94206.94;5051330;28;20195;-77
2021/01/07 07:44:10;;;;;;;2.20;1.40;;;;;;;10.98;52.20;94211.69;5050975;28;20172;-74
2021/01/07 07:46:36;;;;;;;2.23;1.60;;;;;;;11.00;53.02;94225.44;5057636;28;20229;-75
2021/01/07 07:49:03;;;;;;;1.80;1.37;;;;;;;11.13;52.10;94248.16;5071097;28;20167;-77
2021/01/07 07:51:28;;;;;;;2.40;1.30;;;;;;;11.77;77.45;94242.72;5052725;28;20425;-71
2021/01/07 07:54:04;;;;;;;1.40;1.30;;;;;;;11.96;52.51;94266.63;5074501;28;21061;-76
2021/01/07 07:56:30;;;;;;;2.03;1.40;;;;;;;11.19;56.72;94294.03;5057363;28;20234;-75
2021/01/07 07:59:03;;;;;;;2.20;1.50;;;;;;;10.38;59.22;94289.03;5075341;28;20452;-74
2021/01/07 08:01:36;;;;;;;1.67;1.47;;;;;;;9.77;62.17;94304.78;5075111;28;20228;-74
2021/01/07 08:04:02;;;;;;;1.37;1.27;;;;;;;9.60;61.97;94312.47;5074869;28;20421;-77
2021/01/07 08:06:27;;;;;;;1.33;1.10;;;;;;;9.42;61.40;94330.75;5072216;28;20453;-73
2021/01/07 08:09:01;;;;;;;1.97;1.17;;;;;;;8.73;62.34;94333.88;5075034;28;20171;-76
2021/01/07 08:11:29;;;;;;;1.50;1.40;;;;;;;8.62;63.00;94334.75;5069313;28;20183;-76
2021/01/07 08:13:55;;;;;;;1.53;1.20;;;;;;;8.38;62.47;94339.16;5041912;28;20441;-73
2021/01/07 08:16:20;;;;;;;1.43;1.17;;;;;;;8.01;63.87;94343.88;5073594;28;20551;-72
2021/01/07 08:18:46;;;;;;;1.20;1.10;;;;;;;7.57;66.43;94337.78;5073904;28;20218;-73
2021/01/07 08:21:11;;;;;;;2.37;1.50;;;;;;;7.22;66.15;94342.91;5072689;28;20186;-75
2021/01/07 08:23:37;;;;;;;1.77;1.37;;;;;;;6.89;67.65;94363.19;5074481;28;20369;-76
2021/01/07 08:26:02;;;;;;;2.27;1.37;;;;;;;6.71;67.06;94367.19;5073269;28;20183;-72
2021/01/07 08:28:37;;;;;;;4.23;1.80;;;;;;;6.83;67.64;94387.63;5055038;28;20214;-72
2021/01/07 08:31:15;;;;;;;1.57;1.20;;;;;;;6.52;67.39;94388.97;5073894;28;20645;-74
2021/01/07 08:33:40;;;;;;;1.53;1.20;;;;;;;6.39;70.73;94397.25;5053834;28;20429;-73
2021/01/07 08:36:10;;;;;;;3.63;1.23;;;;;;;6.91;67.99;94429.22;5071992;28;20856;-78
2021/01/07 08:38:36;;;;;;;5.10;1.40;;;;;;;7.01;66.66;94431.41;5073276;28;20164;-76
2021/01/07 08:41:14;;;;;;;2.30;1.33;;;;;;;6.62;66.70;94438.16;5074305;28;20922;-76
2021/01/07 08:43:44;;;;;;;1.07;1.07;;;;;;;6.62;67.14;94443.47;5072025;28;20425;-77
2021/01/07 08:46:22;;;;;;;1.17;1.00;;;;;;;6.63;66.74;94445.81;5070693;28;20837;-76
2021/01/07 08:49:06;;;;;;;1.07;1.03;;;;;;;6.51;67.65;94464.34;5073097;28;20415;-74
2021/01/07 08:51:41;;;;;;;1.30;1.20;;;;;;;6.63;67.70;94455.63;5073556;28;20493;-77
2021/01/07 08:54:16;;;;;;;1.00;1.00;;;;;;;6.59;67.22;94455.50;5074217;28;20487;-76
2021/01/07 08:56:43;;;;;;;1.40;1.10;;;;;;;6.61;67.06;94474.53;5073804;28;20460;-77
2021/01/07 08:59:33;;;;;;;0.90;0.90;;;;;;;6.61;67.34;94471.09;5074011;28;20554;-75
2021/01/07 09:02:01;;;;;;;0.97;0.97;;;;;;;6.73;66.42;94475.63;5070623;28;20417;-72
2021/01/07 09:04:36;;;;;;;1.00;1.00;;;;;;;6.63;66.67;94480.28;5071677;28;20422;-72
2021/01/07 09:07:06;;;;;;;1.27;1.13;;;;;;;6.51;66.95;94480.28;5073670;28;20431;-72
2021/01/07 09:09:54;;;;;;;1.53;1.03;;;;;;;6.59;67.22;94482.03;5073710;28;20414;-73
2021/01/07 09:12:35;;;;;;;1.30;1.20;;;;;;;6.37;68.86;94474.47;5074029;28;20409;-72
2021/01/07 09:15:09;;;;;;;1.00;1.00;;;;;;;6.29;69.29;94481.44;5073742;28;20401;-73
2021/01/07 09:18:05;;;;;;;1.00;1.00;;;;;;;5.99;69.87;94464.84;5073967;28;20412;-75
2021/01/07 09:20:31;;;;;;;1.10;1.03;;;;;;;6.16;70.37;94448.00;5069987;28;20574;-75
2021/01/07 09:23:07;;;;;;;1.47;1.37;;;;;;;5.95;71.75;94460.50;5073417;28;20947;-75
2021/01/07 09:25:33;;;;;;;1.67;1.57;;;;;;;6.37;71.18;94450.59;5056266;28;20423;-76
2021/01/07 09:27:58;;;;;;;1.33;1.13;;;;;;;6.47;72.57;94447.53;5073622;28;20456;-74
2021/01/07 09:30:25;;;;;;;1.63;1.27;;;;;;;6.36;71.28;94443.75;5073686;28;20197;-74
2021/01/07 09:32:50;;;;;;;2.20;1.27;;;;;;;6.60;71.02;94437.72;5055604;28;20183;-73
2021/01/07 09:35:16;;;;;;;1.83;1.30;;;;;;;6.67;70.81;94424.66;5073622;28;20508;-74
2021/01/07 09:37:41;;;;;;;1.20;1.17;;;;;;;6.55;71.45;94425.44;5073546;28;20175;-73
2021/01/07 09:40:07;;;;;;;1.77;1.30;;;;;;;6.61;71.26;94423.34;5073501;28;20245;-77
2021/01/07 09:42:32;;;;;;;2.17;1.87;;;;;;;6.78;70.83;94423.13;5073790;28;20199;-76
2021/01/07 09:45:01;;;;;;;1.30;1.20;;;;;;;6.72;70.34;94426.34;5073400;28;20225;-76
2021/01/07 09:47:27;;;;;;;1.50;1.40;;;;;;;6.54;72.12;94421.25;5073650;28;20638;-75
2021/01/07 09:49:52;;;;;;;3.40;1.60;;;;;;;6.66;71.05;94422.34;5073526;28;20449;-78
2021/01/07 09:52:18;;;;;;;2.33;2.13;;;;;;;6.85;71.58;94435.88;5073589;28;20261;-76
2021/01/07 09:54:43;;;;;;;7.27;1.40;;;;;;;6.78;71.14;94415.16;5073394;28;20233;-74
2021/01/07 09:57:09;;;;;;;2.97;1.40;;;;;;;6.82;70.82;94421.38;5073539;28;20621;-76
2021/01/07 09:59:34;;;;;;;1.50;1.40;;;;;;;7.02;70.89;94416.28;5055316;28;20186;-75
2021/01/07 10:02:10;;;;;;;1.83;1.20;;;;;;;7.00;69.48;94394.59;5073119;28;20176;-75
2021/01/07 10:04:36;;;;;;;1.60;1.33;;;;;;;6.89;70.81;94395.03;5073031;28;20699;-75
2021/01/07 10:07:02;;;;;;;1.37;1.27;;;;;;;6.94;70.31;94406.53;5073463;28;20413;-74
2021/01/07 10:09:28;;;;;;;1.33;1.23;;;;;;;6.78;69.70;94395.81;5073023;28;20179;-76
2021/01/07 10:11:57;;;;;;;1.60;1.40;;;;;;;7.05;69.60;94412.94;5072717;28;20428;-77
2021/01/07 10:14:23;;;;;;;1.40;1.30;;;;;;;7.10;69.42;94421.47;5073172;28;20254;-78
2021/01/07 10:17:07;;;;;;;2.60;1.63;;;;;;;6.64;69.62;94422.69;5072723;28;20834;-73
2021/01/07 10:19:37;;;;;;;1.43;1.30;;;;;;;6.97;69.74;94411.19;5072736;28;20417;-76
2021/01/07 10:22:10;;;;;;;2.20;1.73;;;;;;;6.96;70.04;94396.34;5072825;28;20436;-73
2021/01/07 10:24:40;;;;;;;1.73;1.33;;;;;;;6.89;70.22;94403.00;5072660;28;20418;-73
2021/01/07 10:27:06;;;;;;;1.70;1.40;;;;;;;6.83;67.36;94400.91;5072493;28;20416;-71
2021/01/07 10:29:35;;;;;;;1.43;1.17;;;;;;;6.84;67.96;94418.38;5072547;28;20465;-72
2021/01/07 10:32:11;;;;;;;2.30;1.60;;;;;;;6.71;67.37;94398.25;5072418;28;20919;-75
2021/01/07 10:34:40;;;;;;;2.70;1.50;;;;;;;6.91;68.23;94412.53;5072434;28;20420;-72
2021/01/07 10:37:06;;;;;;;2.23;1.57;;;;;;;6.96;66.79;94407.78;5072272;28;20479;-74
2021/01/07 10:39:33;;;;;;;2.17;1.50;;;;;;;7.07;67.74;94405.41;5054442;28;20428;-76
2021/01/07 10:41:59;;;;;;;2.67;1.50;;;;;;;6.89;66.40;94413.63;5072304;28;20441;-75
2021/01/07 10:44:29;;;;;;;3.27;1.60;;;;;;;6.79;67.44;94402.66;5072577;28;20425;-74
2021/01/07 10:46:58;;;;;;;4.40;1.67;;;;;;;7.02;67.21;94413.63;5071807;28;20687;-75
2021/01/07 10:49:24;;;;;;;2.43;1.60;;;;;;;7.07;67.96;94400.09;5071909;28;20467;-72
2021/01/07 10:52:01;;;;;;;2.27;2.07;;;;;;;6.80;67.74;94406.91;5037458;28;20413;-74
2021/01/07 10:54:48;;;;;;;1.40;1.30;;;;;;;7.01;66.00;94404.09;5072459;28;20623;-74
2021/01/07 10:57:36;;;;;;;1.80;1.67;;;;;;;6.88;66.47;94398.03;5072314;28;20468;-76
2021/01/07 11:00:08;;;;;;;1.70;1.60;;;;;;;6.89;66.69;94403.00;5071877;28;20413;-74
2021/01/07 11:03:11;;;;;;;2.20;1.50;;;;;;;6.90;67.30;94390.50;5071918;28;20418;-76
2021/01/07 11:05:37;;;;;;;2.17;1.20;;;;;;;7.11;66.11;94395.69;5071665;28;20433;-72
2021/01/07 11:08:27;;;;;;;1.67;1.57;;;;;;;7.13;67.27;94391.59;5071831;28;20417;-72
2021/01/07 11:10:53;;;;;;;1.87;1.50;;;;;;;6.97;66.66;94393.41;5071736;28;20409;-72
2021/01/07 11:13:23;;;;;;;1.27;1.13;;;;;;;7.00;66.99;94394.59;5071762;28;20414;-73
2021/01/07 11:15:58;;;;;;;3.73;1.80;;;;;;;6.79;66.58;94390.19;5071709;28;20461;-72
2021/01/07 11:18:30;;;;;;;1.93;1.50;;;;;;;6.92;66.54;94392.84;5069855;28;20428;-73
2021/01/07 11:20:59;;;;;;;1.57;1.47;;;;;;;6.87;68.93;94397.25;5071578;28;20457;-72
2021/01/07 11:23:26;;;;;;;2.57;1.63;;;;;;;6.92;67.54;94396.28;5053545;28;20814;-72
2021/01/07 11:25:51;;;;;;;2.67;2.13;;;;;;;6.85;67.29;94394.19;5071302;28;20425;-72
2021/01/07 11:28:18;;;;;;;2.17;1.60;;;;;;;7.03;67.56;94405.31;5052075;28;20821;-72
2021/01/07 11:30:43;;;;;;;1.93;1.80;;;;;;;6.99;66.73;94408.97;5051686;28;20510;-72
2021/01/07 11:33:09;;;;;;;1.83;1.50;;;;;;;7.01;66.47;94412.06;5070509;28;20421;-72
2021/01/07 11:35:34;;;;;;;3.47;1.80;;;;;;;7.04;66.52;94390.94;5052751;28;20195;-73
2021/01/07 11:38:06;;;;;;;2.10;1.63;;;;;;;7.03;65.97;94407.97;5071060;28;20167;-73
2021/01/07 11:40:39;;;;;;;1.67;1.57;;;;;;;7.08;65.67;94396.38;5052944;28;20238;-75